Time;durP1;ratioP1;P1;durP2;ratioP2;P2;SDS_P1;SDS_P2;PMS_P1;PMS_P2;Temp;Humidity;BMP_temperature;BMP_pressure;BME280_temperature;BME280_humidity;BME280_pressure;Samples;Min_cycle;Max_cycle;Signal;HPM_P1;HPM_P2
2022/11/15 00:00:51;;;;;;;;;;;8.30;99.90;;;;;;5105607;28;19986;-41
2022/11/15 00:03:17;;;;;;;;;;;8.30;99.90;;;;;;5111080;28;19908;-44
2022/11/15 00:05:42;;;;;;;;;;;8.20;99.90;;;;;;5113676;28;20367;-42
2022/11/15 00:08:08;;;;;;;;;;;8.20;99.90;;;;;;5112813;28;19956;-42
2022/11/15 00:10:33;;;;;;;;;;;8.30;99.90;;;;;;5100853;28;19931;-33
2022/11/15 00:12:59;;;;;;;;;;;8.30;99.90;;;;;;5104090;28;19908;-34
2022/11/15 00:15:24;;;;;;;;;;;8.30;99.90;;;;;;5099021;28;20449;-34
2022/11/15 00:17:50;;;;;;;;;;;8.40;99.90;;;;;;5101058;28;19961;-35
2022/11/15 00:20:16;;;;;;;;;;;8.40;99.90;;;;;;5098070;27;19970;-36
2022/11/15 00:22:42;;;;;;;;;;;8.40;99.90;;;;;;5102018;28;19947;-55
2022/11/15 00:25:07;;;;;;;;;;;8.40;99.90;;;;;;5094689;28;19951;-35
2022/11/15 00:27:33;;;;;;;;;;;8.30;99.90;;;;;;5096961;28;20314;-42
2022/11/15 00:29:59;;;;;;;;;;;8.30;99.90;;;;;;5104679;28;19951;-35
2022/11/15 00:32:24;;;;;;;;;;;8.30;99.90;;;;;;5109889;28;19916;-36
2022/11/15 00:34:49;;;;;;;;;;;8.40;99.90;;;;;;5096739;28;19908;-37
2022/11/15 00:37:15;;;;;;;;;;;8.50;99.90;;;;;;5093200;28;19908;-39
2022/11/15 00:39:41;;;;;;;;;;;8.40;99.90;;;;;;5113897;28;20359;-35
2022/11/15 00:42:06;;;;;;;;;;;8.40;99.90;;;;;;5104652;28;19954;-35
2022/11/15 00:44:32;;;;;;;;;;;8.30;99.90;;;;;;5093535;28;19915;-34
2022/11/15 00:46:57;;;;;;;;;;;8.20;99.90;;;;;;5100071;28;19911;-33
2022/11/15 00:49:23;;;;;;;;;;;8.20;99.90;;;;;;5104250;28;19908;-35
2022/11/15 00:51:48;;;;;;;;;;;8.20;99.90;;;;;;5105453;28;19908;-33
2022/11/15 00:54:14;;;;;;;;;;;8.30;99.90;;;;;;5113780;28;19908;-35
2022/11/15 00:56:39;;;;;;;;;;;8.30;99.90;;;;;;5113994;28;19954;-37
2022/11/15 00:59:05;;;;;;;;;;;8.30;99.90;;;;;;5104047;28;20292;-36
2022/11/15 01:01:30;;;;;;;;;;;8.30;99.90;;;;;;5110874;28;20345;-45
2022/11/15 01:03:56;;;;;;;;;;;8.30;99.90;;;;;;5106495;28;19914;-48
2022/11/15 01:06:21;;;;;;;;;;;8.40;99.90;;;;;;5102959;28;19908;-41
2022/11/15 01:08:47;;;;;;;;;;;8.40;99.90;;;;;;5110393;28;19916;-40
2022/11/15 01:11:12;;;;;;;;;;;8.40;99.90;;;;;;5107879;28;20271;-41
2022/11/15 01:13:38;;;;;;;;;;;8.40;99.90;;;;;;5094640;28;19946;-41
2022/11/15 01:16:12;;;;;;;;;;;8.40;99.90;;;;;;5104808;28;20321;-41
2022/11/15 01:18:37;;;;;;;;;;;8.50;99.90;;;;;;5095860;28;19915;-43
2022/11/15 01:21:07;;;;;;;;;;;8.50;99.90;;;;;;5099589;28;19915;-42
2022/11/15 01:23:32;;;;;;;;;;;8.50;99.90;;;;;;5103874;28;19908;-45
2022/11/15 01:26:01;;;;;;;;;;;8.50;99.90;;;;;;5110565;28;19964;-42
2022/11/15 01:28:29;;;;;;;;;;;8.40;99.90;;;;;;5109010;28;20260;-41
2022/11/15 01:30:57;;;;;;;;;;;8.50;99.90;;;;;;5104486;28;20372;-49
2022/11/15 01:33:22;;;;;;;;;;;8.50;99.90;;;;;;5103611;28;19918;-41
2022/11/15 01:35:48;;;;;;;;;;;8.60;99.90;;;;;;5092918;28;19916;-42
2022/11/15 01:38:13;;;;;;;;;;;8.60;99.90;;;;;;5101216;28;20282;-44
2022/11/15 01:40:39;;;;;;;;;;;8.60;99.90;;;;;;5093981;28;19908;-42
2022/11/15 01:43:23;;;;;;;;;;;8.70;99.90;;;;;;5093316;28;19908;-40
2022/11/15 01:45:55;;;;;;;;;;;8.80;99.90;;;;;;5109871;28;19914;-42
2022/11/15 01:48:21;;;;;;;;;;;8.80;99.90;;;;;;5111860;28;19916;-40
2022/11/15 01:50:46;;;;;;;;;;;8.80;99.90;;;;;;5110832;28;19930;-41
2022/11/15 01:53:12;;;;;;;;;;;8.80;99.90;;;;;;5118110;27;19919;-49
2022/11/15 01:55:38;;;;;;;;;;;8.90;99.90;;;;;;5099549;28;19998;-45
2022/11/15 01:58:04;;;;;;;;;;;8.90;99.90;;;;;;5095673;28;19915;-52
2022/11/15 02:00:30;;;;;;;;;;;9.00;99.90;;;;;;5101836;28;20367;-41
2022/11/15 02:02:56;;;;;;;;;;;8.90;99.90;;;;;;5101055;28;19914;-42
2022/11/15 02:05:21;;;;;;;;;;;9.10;99.90;;;;;;5109247;28;20002;-35
2022/11/15 02:07:47;;;;;;;;;;;9.10;99.90;;;;;;5101052;28;19930;-41
2022/11/15 02:10:14;;;;;;;;;;;9.10;99.90;;;;;;5100539;28;19990;-38
2022/11/15 02:12:40;;;;;;;;;;;9.10;99.90;;;;;;5097957;28;19908;-37
2022/11/15 02:15:06;;;;;;;;;;;9.10;99.90;;;;;;5100454;28;20115;-34
2022/11/15 02:17:53;;;;;;;;;;;9.10;99.90;;;;;;5102967;28;20374;-35
2022/11/15 02:20:37;;;;;;;;;;;9.10;99.90;;;;;;5099500;28;19908;-34
2022/11/15 02:23:21;;;;;;;;;;;9.20;99.90;;;;;;5114564;28;19911;-38
2022/11/15 02:26:14;;;;;;;;;;;9.20;99.90;;;;;;5102704;28;19998;-34
2022/11/15 02:28:46;;;;;;;;;;;9.20;99.90;;;;;;5099135;28;20360;-32
2022/11/15 02:31:26;;;;;;;;;;;9.30;99.90;;;;;;5105150;28;19908;-35
2022/11/15 02:34:02;;;;;;;;;;;9.30;99.90;;;;;;5102097;28;19908;-43
2022/11/15 02:36:34;;;;;;;;;;;9.30;99.90;;;;;;5102944;28;19911;-41
2022/11/15 02:39:03;;;;;;;;;;;9.40;99.90;;;;;;5112200;28;19912;-40
2022/11/15 02:41:32;;;;;;;;;;;9.40;99.90;;;;;;5098199;28;19908;-44
2022/11/15 02:44:04;;;;;;;;;;;9.50;99.90;;;;;;5104153;28;20333;-39
2022/11/15 02:49:14;;;;;;;;;;;9.60;99.90;;;;;;5104179;28;20328;-38
2022/11/15 02:51:40;;;;;;;;;;;9.70;99.90;;;;;;5107769;28;19912;-34
2022/11/15 02:54:06;;;;;;;;;;;9.70;99.90;;;;;;5111770;28;20355;-35
2022/11/15 02:56:32;;;;;;;;;;;9.70;99.90;;;;;;5099044;28;19907;-37
2022/11/15 02:58:58;;;;;;;;;;;9.80;99.90;;;;;;5097094;28;19956;-36
2022/11/15 03:01:46;;;;;;;;;;;9.80;99.90;;;;;;5103519;28;19953;-33
2022/11/15 03:04:30;;;;;;;;;;;9.90;99.90;;;;;;5103490;28;19915;-33
2022/11/15 03:06:59;;;;;;;;;;;10.00;99.90;;;;;;5095101;28;20364;-35
2022/11/15 03:09:42;;;;;;;;;;;10.00;99.90;;;;;;5097181;28;20368;-37
2022/11/15 03:12:15;;;;;;;;;;;10.10;99.90;;;;;;5097499;28;20031;-34
2022/11/15 03:15:00;;;;;;;;;;;10.10;99.90;;;;;;5105354;28;19912;-37
2022/11/15 03:17:33;;;;;;;;;;;10.20;99.90;;;;;;5096593;28;19918;-35
2022/11/15 03:20:00;;;;;;;;;;;10.20;99.90;;;;;;5114537;28;20367;-37
2022/11/15 03:22:27;;;;;;;;;;;10.30;99.90;;;;;;5095889;28;20378;-35
2022/11/15 03:24:55;;;;;;;;;;;10.30;99.90;;;;;;5104939;28;20368;-42
2022/11/15 03:27:22;;;;;;;;;;;10.40;99.90;;;;;;5094672;28;19912;-37
2022/11/15 03:29:51;;;;;;;;;;;10.50;99.90;;;;;;5108791;28;20349;-42
2022/11/15 03:32:18;;;;;;;;;;;10.40;99.90;;;;;;5107633;28;20384;-42
2022/11/15 03:34:44;;;;;;;;;;;10.40;99.90;;;;;;5107709;28;19907;-36
2022/11/15 03:37:11;;;;;;;;;;;10.40;99.90;;;;;;5099229;28;20440;-36
2022/11/15 03:39:36;;;;;;;;;;;10.40;99.90;;;;;;5095467;28;19950;-33
2022/11/15 03:42:08;;;;;;;;;;;10.50;99.90;;;;;;5094677;28;19988;-33
2022/11/15 03:44:42;;;;;;;;;;;10.50;99.90;;;;;;5106350;28;19911;-33
2022/11/15 03:47:23;;;;;;;;;;;10.50;99.90;;;;;;5114872;28;20002;-33
2022/11/15 03:50:12;;;;;;;;;;;10.50;99.90;;;;;;5106346;28;19907;-33
2022/11/15 03:52:39;;;;;;;;;;;10.60;99.90;;;;;;5105062;27;19907;-36
2022/11/15 03:55:06;;;;;;;;;;;10.70;99.90;;;;;;5108010;28;19915;-34
2022/11/15 03:57:32;;;;;;;;;;;10.70;99.90;;;;;;5105253;28;19914;-35
2022/11/15 03:59:57;;;;;;;;;;;10.70;99.90;;;;;;5094558;28;20276;-42
2022/11/15 04:02:23;;;;;;;;;;;10.70;99.90;;;;;;5097342;28;19919;-44
2022/11/15 04:04:48;;;;;;;;;;;10.70;99.90;;;;;;5107760;28;19915;-39
2022/11/15 04:07:14;;;;;;;;;;;10.80;99.90;;;;;;5112314;28;20421;-52
2022/11/15 04:12:32;;;;;;;;;;;10.80;99.90;;;;;;5096028;28;20020;-52
2022/11/15 04:15:07;;;;;;;;;;;10.80;99.90;;;;;;5102413;28;19919;-56
2022/11/15 04:17:46;;;;;;;;;;;10.80;99.90;;;;;;5100959;28;19915;-43
2022/11/15 04:25:41;;;;;;;;;;;10.80;99.90;;;;;;5094705;28;20366;-40
2022/11/15 04:28:06;;;;;;;;;;;10.80;99.90;;;;;;5104912;28;19912;-41
2022/11/15 04:30:32;;;;;;;;;;;10.80;99.90;;;;;;5093844;28;19919;-56
2022/11/15 04:32:58;;;;;;;;;;;10.80;99.90;;;;;;5101453;28;20252;-37
2022/11/15 04:35:23;;;;;;;;;;;10.90;99.90;;;;;;5101587;28;20272;-42
2022/11/15 04:40:33;;;;;;;;;;;10.90;99.90;;;;;;5100320;28;19923;-45
2022/11/15 04:42:58;;;;;;;;;;;11.00;99.90;;;;;;5105350;28;19990;-42
2022/11/15 04:45:24;;;;;;;;;;;11.10;99.90;;;;;;5110802;28;20401;-41
2022/11/15 04:47:49;;;;;;;;;;;11.20;99.90;;;;;;5107673;28;19934;-40
2022/11/15 04:50:15;;;;;;;;;;;11.20;99.90;;;;;;5108948;28;19915;-42
2022/11/15 04:52:42;;;;;;;;;;;11.20;99.90;;;;;;5111482;28;19908;-41
2022/11/15 04:55:08;;;;;;;;;;;11.20;99.90;;;;;;5112717;28;20287;-42
2022/11/15 04:57:34;;;;;;;;;;;11.20;99.90;;;;;;5094924;28;19915;-43
2022/11/15 04:59:59;;;;;;;;;;;11.20;99.90;;;;;;5093235;28;20395;-36
2022/11/15 05:04:18;;;;;;;;;;;11.30;99.90;;;;;;5097335;28;20011;-44
2022/11/15 05:05:10;;;;;;;;;;;11.30;99.90;;;;;;5099749;28;19915;-44
2022/11/15 05:07:36;;;;;;;;;;;11.20;99.90;;;;;;5098944;28;19924;-45
2022/11/15 05:10:01;;;;;;;;;;;11.20;99.90;;;;;;5091940;28;20422;-36
2022/11/15 05:12:27;;;;;;;;;;;11.20;99.90;;;;;;5094838;28;20003;-33
2022/11/15 05:14:52;;;;;;;;;;;11.30;99.90;;;;;;5099846;28;20424;-38
2022/11/15 05:17:17;;;;;;;;;;;11.30;99.90;;;;;;5103120;28;20002;-33
2022/11/15 05:19:44;;;;;;;;;;;11.30;99.90;;;;;;5096398;28;19908;-36
2022/11/15 05:22:09;;;;;;;;;;;11.30;99.90;;;;;;5098661;28;19919;-46
2022/11/15 05:24:35;;;;;;;;;;;11.30;99.90;;;;;;5103610;28;20284;-35
2022/11/15 05:27:00;;;;;;;;;;;11.30;99.90;;;;;;5097426;28;19908;-33
2022/11/15 05:29:26;;;;;;;;;;;11.30;99.90;;;;;;5103612;28;20364;-36
2022/11/15 05:31:51;;;;;;;;;;;11.40;99.90;;;;;;5117471;28;20013;-31
2022/11/15 05:34:18;;;;;;;;;;;11.30;99.90;;;;;;5105371;28;19908;-32
2022/11/15 05:36:46;;;;;;;;;;;11.40;99.90;;;;;;5096203;28;20275;-44
2022/11/15 05:39:12;;;;;;;;;;;11.40;99.90;;;;;;5105534;28;19923;-33
2022/11/15 05:41:44;;;;;;;;;;;11.40;99.90;;;;;;5115509;28;20329;-35
2022/11/15 05:44:10;;;;;;;;;;;11.50;99.90;;;;;;5109407;28;20378;-32
2022/11/15 05:46:36;;;;;;;;;;;11.40;99.90;;;;;;5105830;28;20313;-34
2022/11/15 05:49:02;;;;;;;;;;;11.40;99.90;;;;;;5110659;28;19919;-36
2022/11/15 05:51:29;;;;;;;;;;;11.50;99.90;;;;;;5116287;28;20394;-33
2022/11/15 05:53:56;;;;;;;;;;;11.60;99.90;;;;;;5108896;28;20374;-33
2022/11/15 05:56:21;;;;;;;;;;;11.60;99.90;;;;;;5107328;28;19920;-37
2022/11/15 05:58:47;;;;;;;;;;;11.60;99.90;;;;;;5105984;28;20031;-38
2022/11/15 06:01:12;;;;;;;;;;;11.60;99.90;;;;;;5108467;28;19915;-37
2022/11/15 06:03:38;;;;;;;;;;;11.60;99.90;;;;;;5102524;28;20383;-37
2022/11/15 06:06:03;;;;;;;;;;;11.70;99.90;;;;;;5096555;28;19912;-48
2022/11/15 06:08:29;;;;;;;;;;;11.70;99.90;;;;;;5099133;28;19915;-34
2022/11/15 06:10:54;;;;;;;;;;;11.70;99.90;;;;;;5101936;28;19915;-33
2022/11/15 06:13:20;;;;;;;;;;;11.70;99.90;;;;;;5110816;28;19911;-32
2022/11/15 06:15:45;;;;;;;;;;;11.60;99.90;;;;;;5102299;28;20280;-34
2022/11/15 06:18:11;;;;;;;;;;;11.70;99.90;;;;;;5095823;28;20364;-40
2022/11/15 06:20:36;;;;;;;;;;;11.70;99.90;;;;;;5103946;28;20370;-35
2022/11/15 06:23:03;;;;;;;;;;;11.60;99.90;;;;;;5101961;28;19955;-35
2022/11/15 06:25:29;;;;;;;;;;;11.60;99.90;;;;;;5105661;28;19914;-34
2022/11/15 06:27:55;;;;;;;;;;;11.60;99.90;;;;;;5111271;28;20372;-31
2022/11/15 06:30:21;;;;;;;;;;;11.60;99.90;;;;;;5101479;28;19919;-32
2022/11/15 06:32:47;;;;;;;;;;;11.60;99.90;;;;;;5108070;28;20051;-37
2022/11/15 06:35:13;;;;;;;;;;;11.70;99.90;;;;;;5111147;28;19908;-31
2022/11/15 06:37:38;;;;;;;;;;;11.60;99.90;;;;;;5103444;28;20409;-41
2022/11/15 06:40:04;;;;;;;;;;;11.70;99.90;;;;;;5102179;28;19911;-36
2022/11/15 06:42:29;;;;;;;;;;;11.70;99.90;;;;;;5095029;28;20005;-35
2022/11/15 06:44:55;;;;;;;;;;;11.70;99.90;;;;;;5100619;28;19915;-32
2022/11/15 06:47:20;;;;;;;;;;;11.70;99.90;;;;;;5107035;28;19916;-34
2022/11/15 06:49:46;;;;;;;;;;;11.70;99.90;;;;;;5095426;28;19907;-31
2022/11/15 06:52:11;;;;;;;;;;;11.70;99.90;;;;;;5093383;28;20276;-32
2022/11/15 06:54:37;;;;;;;;;;;11.70;99.90;;;;;;5098164;28;19927;-35
2022/11/15 06:57:03;;;;;;;;;;;11.80;99.90;;;;;;5097963;28;19908;-34
2022/11/15 06:59:29;;;;;;;;;;;11.80;99.90;;;;;;5097828;28;20360;-34
2022/11/15 07:01:54;;;;;;;;;;;11.80;99.90;;;;;;5096440;28;19908;-38
2022/11/15 07:04:20;;;;;;;;;;;11.70;99.90;;;;;;5106434;28;19914;-34
2022/11/15 07:06:46;;;;;;;;;;;11.70;99.90;;;;;;5108670;28;20272;-33
2022/11/15 07:09:12;;;;;;;;;;;11.70;99.90;;;;;;5096948;28;19920;-36
2022/11/15 07:11:37;;;;;;;;;;;11.70;99.90;;;;;;5094428;28;19908;-32
2022/11/15 07:14:03;;;;;;;;;;;11.70;99.90;;;;;;5092972;28;20669;-38
2022/11/15 07:16:28;;;;;;;;;;;11.60;99.90;;;;;;5100419;28;19924;-34
2022/11/15 07:18:54;;;;;;;;;;;11.60;99.90;;;;;;5097930;28;19912;-35
2022/11/15 07:21:19;;;;;;;;;;;11.50;99.90;;;;;;5101900;28;20287;-32
2022/11/15 07:23:45;;;;;;;;;;;11.50;99.90;;;;;;5102529;28;20284;-32
2022/11/15 07:26:10;;;;;;;;;;;11.50;99.90;;;;;;5108439;28;19915;-34
2022/11/15 07:28:36;;;;;;;;;;;11.50;99.90;;;;;;5096105;28;19919;-35
2022/11/15 07:31:05;;;;;;;;;;;11.40;99.90;;;;;;5097291;28;19986;-35
2022/11/15 07:33:30;;;;;;;;;;;11.50;99.90;;;;;;5106598;28;19915;-37
2022/11/15 07:35:58;;;;;;;;;;;11.50;99.90;;;;;;5095611;28;20336;-35
2022/11/15 07:38:24;;;;;;;;;;;11.50;99.90;;;;;;5105979;28;20371;-38
2022/11/15 07:40:55;;;;;;;;;;;11.50;99.90;;;;;;5105074;28;19915;-32
2022/11/15 07:43:21;;;;;;;;;;;11.60;99.90;;;;;;5094557;28;19907;-33
2022/11/15 07:45:46;;;;;;;;;;;11.70;99.90;;;;;;5093916;28;20348;-35
2022/11/15 07:48:12;;;;;;;;;;;11.60;99.90;;;;;;5094108;28;20097;-36
2022/11/15 07:50:40;;;;;;;;;;;11.60;99.90;;;;;;5100091;27;20034;-37
2022/11/15 07:53:05;;;;;;;;;;;11.60;99.90;;;;;;5112322;28;20287;-35
2022/11/15 07:55:31;;;;;;;;;;;11.60;99.90;;;;;;5110198;28;19912;-35
2022/11/15 07:58:00;;;;;;;;;;;11.60;99.90;;;;;;5100808;28;19914;-37
2022/11/15 08:00:25;;;;;;;;;;;11.70;99.90;;;;;;5109131;28;19915;-33
2022/11/15 08:02:51;;;;;;;;;;;11.70;99.90;;;;;;5095631;28;20340;-35
2022/11/15 08:05:16;;;;;;;;;;;11.70;99.90;;;;;;5107671;28;20387;-38
2022/11/15 08:07:42;;;;;;;;;;;11.70;99.90;;;;;;5094193;28;19912;-33
2022/11/15 08:10:08;;;;;;;;;;;11.80;99.90;;;;;;5100860;28;19914;-37
2022/11/15 08:12:34;;;;;;;;;;;11.80;99.90;;;;;;5109553;28;20050;-32
2022/11/15 08:14:59;;;;;;;;;;;11.90;99.90;;;;;;5092948;28;19916;-37
2022/11/15 08:17:25;;;;;;;;;;;11.90;99.90;;;;;;5086878;28;19915;-40
2022/11/15 08:19:50;;;;;;;;;;;11.90;99.90;;;;;;5102008;28;19908;-32
2022/11/15 08:22:16;;;;;;;;;;;11.90;99.90;;;;;;5095391;28;19908;-34
2022/11/15 08:24:42;;;;;;;;;;;11.90;99.90;;;;;;5100251;28;20419;-35
2022/11/15 08:27:14;;;;;;;;;;;12.00;99.90;;;;;;5107669;27;19991;-38
2022/11/15 08:29:41;;;;;;;;;;;11.90;99.90;;;;;;5101412;28;19919;-33
2022/11/15 08:32:07;;;;;;;;;;;12.00;99.90;;;;;;5097479;28;20249;-32
2022/11/15 08:34:32;;;;;;;;;;;12.10;99.90;;;;;;5094839;28;19953;-33
2022/11/15 08:36:58;;;;;;;;;;;12.10;99.90;;;;;;5106773;28;20303;-39
2022/11/15 08:39:23;;;;;;;;;;;12.20;99.90;;;;;;5092546;28;19951;-34
2022/11/15 08:41:49;;;;;;;;;;;12.10;99.90;;;;;;5093276;28;20360;-35
2022/11/15 08:44:14;;;;;;;;;;;12.10;99.90;;;;;;5095225;28;19912;-34
2022/11/15 08:46:40;;;;;;;;;;;12.20;99.90;;;;;;5098514;28;20403;-32
2022/11/15 08:49:05;;;;;;;;;;;12.20;99.90;;;;;;5098530;28;19940;-33
2022/11/15 08:51:31;;;;;;;;;;;12.30;99.90;;;;;;5104958;28;19908;-38
2022/11/15 08:53:56;;;;;;;;;;;12.30;99.90;;;;;;5091937;28;20051;-33
2022/11/15 08:56:22;;;;;;;;;;;12.40;99.90;;;;;;5091717;28;19914;-32
2022/11/15 08:58:47;;;;;;;;;;;12.50;99.90;;;;;;5092414;28;19924;-36
2022/11/15 09:01:14;;;;;;;;;;;12.60;99.90;;;;;;5092167;28;19915;-49
2022/11/15 09:03:40;;;;;;;;;;;12.70;99.90;;;;;;5098442;28;19961;-36
2022/11/15 09:06:06;;;;;;;;;;;12.70;99.90;;;;;;5094748;28;19908;-40
2022/11/15 09:08:31;;;;;;;;;;;12.80;99.90;;;;;;5093150;28;19923;-32
2022/11/15 09:10:57;;;;;;;;;;;12.80;99.90;;;;;;5094686;28;19962;-37
2022/11/15 09:13:23;;;;;;;;;;;12.80;99.90;;;;;;5089103;28;20013;-38
2022/11/15 09:15:48;;;;;;;;;;;12.90;99.90;;;;;;5112294;28;19908;-36
2022/11/15 09:18:14;;;;;;;;;;;12.90;99.90;;;;;;5102906;28;19908;-36
2022/11/15 09:20:39;;;;;;;;;;;12.90;99.90;;;;;;5093030;28;20359;-34
2022/11/15 09:23:05;;;;;;;;;;;13.00;99.90;;;;;;5094889;28;19908;-35
2022/11/15 09:25:31;;;;;;;;;;;13.10;99.90;;;;;;5096340;28;19998;-32
2022/11/15 09:27:56;;;;;;;;;;;13.00;99.90;;;;;;5100270;28;20007;-33
2022/11/15 09:30:22;;;;;;;;;;;13.00;99.90;;;;;;5101128;28;20450;-36
2022/11/15 09:32:48;;;;;;;;;;;13.00;99.90;;;;;;5098522;28;19908;-35
2022/11/15 09:35:13;;;;;;;;;;;13.00;99.90;;;;;;5095275;28;19952;-39
2022/11/15 09:37:39;;;;;;;;;;;13.00;99.90;;;;;;5095691;28;20446;-31
2022/11/15 09:40:04;;;;;;;;;;;12.90;99.90;;;;;;5102973;28;19908;-36
2022/11/15 09:42:50;;;;;;;;;;;13.00;99.90;;;;;;5097003;28;19908;-50
2022/11/15 09:45:22;;;;;;;;;;;13.10;99.90;;;;;;5101093;28;20299;-38
2022/11/15 09:48:23;;;;;;;;;;;13.10;99.90;;;;;;5101914;28;19920;-33
2022/11/15 09:50:49;;;;;;;;;;;13.10;99.90;;;;;;5045353;28;20392;-35
2022/11/15 09:53:32;;;;;;;;;;;13.00;99.90;;;;;;5095156;28;20547;-35
2022/11/15 09:55:59;;;;;;;;;;;12.90;99.90;;;;;;5092338;28;19907;-31
2022/11/15 09:58:30;;;;;;;;;;;13.00;99.90;;;;;;5098232;28;19907;-35
2022/11/15 10:00:57;;;;;;;;;;;13.10;99.90;;;;;;5091901;28;20291;-35
2022/11/15 10:03:25;;;;;;;;;;;13.10;99.90;;;;;;5091806;28;19919;-38
2022/11/15 10:05:54;;;;;;;;;;;13.20;99.90;;;;;;5103904;28;20457;-34
2022/11/15 10:08:22;;;;;;;;;;;13.10;99.90;;;;;;5106498;28;20365;-34
2022/11/15 10:10:51;;;;;;;;;;;13.10;99.90;;;;;;5098075;28;20380;-35
2022/11/15 10:13:24;;;;;;;;;;;13.20;99.90;;;;;;5095927;28;19915;-38
2022/11/15 10:15:50;;;;;;;;;;;13.20;99.90;;;;;;5104320;28;19908;-35
2022/11/15 10:18:27;;;;;;;;;;;13.10;99.90;;;;;;5097138;28;19915;-32
2022/11/15 10:21:02;;;;;;;;;;;13.10;99.90;;;;;;5101982;28;19923;-43
2022/11/15 10:23:28;;;;;;;;;;;13.10;99.90;;;;;;5097494;28;19943;-42
2022/11/15 10:25:55;;;;;;;;;;;13.10;99.90;;;;;;5108567;28;19908;-40
2022/11/15 10:28:28;;;;;;;;;;;13.20;99.90;;;;;;5102496;28;19911;-41
2022/11/15 10:30:54;;;;;;;;;;;13.10;99.90;;;;;;5107649;28;20380;-40
2022/11/15 10:33:26;;;;;;;;;;;13.10;99.90;;;;;;5095192;28;19923;-42
2022/11/15 10:36:10;;;;;;;;;;;13.10;99.90;;;;;;5101890;28;20101;-39
2022/11/15 10:38:48;;;;;;;;;;;13.10;99.90;;;;;;5096119;28;20433;-41
2022/11/15 10:41:14;;;;;;;;;;;13.10;99.90;;;;;;5098925;28;19973;-41
2022/11/15 10:43:40;;;;;;;;;;;13.20;99.90;;;;;;5111956;28;19975;-43
2022/11/15 10:46:22;;;;;;;;;;;13.20;99.90;;;;;;5113502;28;19947;-42
2022/11/15 10:48:47;;;;;;;;;;;13.20;99.90;;;;;;5097618;28;19923;-45
2022/11/15 10:51:20;;;;;;;;;;;13.20;99.90;;;;;;5102320;28;19916;-42
2022/11/15 10:53:46;;;;;;;;;;;13.30;99.90;;;;;;5104904;28;20017;-41
2022/11/15 10:56:15;;;;;;;;;;;13.40;99.90;;;;;;5107311;28;19916;-43
2022/11/15 10:58:52;;;;;;;;;;;13.50;99.90;;;;;;5102436;28;19954;-42
2022/11/15 11:01:18;;;;;;;;;;;13.50;99.90;;;;;;5103371;28;19991;-42
2022/11/15 11:03:45;;;;;;;;;;;13.40;99.90;;;;;;5099955;28;19915;-46
2022/11/15 11:06:13;;;;;;;;;;;13.50;99.90;;;;;;5101325;28;19914;-40
2022/11/15 11:08:39;;;;;;;;;;;13.60;99.90;;;;;;5107640;28;19920;-41
2022/11/15 11:11:05;;;;;;;;;;;13.60;99.90;;;;;;5094373;28;19961;-44
2022/11/15 11:13:35;;;;;;;;;;;13.60;99.90;;;;;;5094878;28;19915;-42
2022/11/15 11:16:36;;;;;;;;;;;13.60;99.90;;;;;;5096774;28;19908;-42
2022/11/15 11:19:10;;;;;;;;;;;13.50;99.90;;;;;;5033484;28;19974;-41
2022/11/15 11:21:45;;;;;;;;;;;13.50;99.90;;;;;;5087887;28;19908;-41
2022/11/15 11:24:10;;;;;;;;;;;13.50;99.90;;;;;;5115456;28;19910;-42
2022/11/15 11:26:41;;;;;;;;;;;13.40;99.90;;;;;;5113584;28;20287;-43
2022/11/15 11:29:10;;;;;;;;;;;13.50;99.90;;;;;;5103536;28;19969;-43
2022/11/15 11:31:54;;;;;;;;;;;13.40;99.90;;;;;;5108834;28;19957;-43
2022/11/15 11:34:42;;;;;;;;;;;13.40;99.90;;;;;;5113676;28;19904;-43
2022/11/15 11:37:12;;;;;;;;;;;13.50;99.90;;;;;;5108380;28;20287;-42
2022/11/15 11:39:44;;;;;;;;;;;13.50;99.90;;;;;;5099905;28;20006;-43
2022/11/15 11:42:15;;;;;;;;;;;13.40;99.90;;;;;;5094933;28;19904;-42
2022/11/15 11:44:49;;;;;;;;;;;13.50;99.90;;;;;;5101630;28;20448;-43
2022/11/15 11:47:20;;;;;;;;;;;13.70;99.90;;;;;;5108627;28;19911;-42
2022/11/15 11:49:50;;;;;;;;;;;13.80;99.90;;;;;;5114103;28;19942;-43
2022/11/15 11:52:28;;;;;;;;;;;13.90;99.90;;;;;;5114983;28;19903;-44
2022/11/15 11:54:57;;;;;;;;;;;13.90;99.90;;;;;;5114366;28;20375;-36
2022/11/15 11:57:42;;;;;;;;;;;13.90;99.90;;;;;;5097180;28;19908;-41
2022/11/15 12:00:16;;;;;;;;;;;14.00;99.90;;;;;;5114076;28;19911;-43
2022/11/15 12:02:45;;;;;;;;;;;14.00;99.90;;;;;;5112713;28;19915;-40
2022/11/15 12:05:16;;;;;;;;;;;13.90;99.90;;;;;;5108940;28;19908;-41
2022/11/15 12:07:42;;;;;;;;;;;13.90;99.90;;;;;;5113605;28;19911;-44
2022/11/15 12:10:16;;;;;;;;;;;13.90;99.90;;;;;;5113538;28;19922;-42
2022/11/15 12:12:47;;;;;;;;;;;14.00;99.90;;;;;;5111532;28;19915;-38
2022/11/15 12:15:15;;;;;;;;;;;14.00;99.90;;;;;;5114160;28;20363;-36
2022/11/15 12:17:41;;;;;;;;;;;14.10;99.90;;;;;;5114362;28;19903;-41
2022/11/15 12:20:14;;;;;;;;;;;14.10;99.90;;;;;;5114354;28;20119;-39
2022/11/15 12:22:44;;;;;;;;;;;14.10;99.90;;;;;;5095049;28;19953;-39
2022/11/15 12:25:09;;;;;;;;;;;14.10;99.90;;;;;;5096129;28;19911;-56
2022/11/15 12:27:38;;;;;;;;;;;14.10;99.90;;;;;;5093590;28;19930;-33
2022/11/15 12:30:09;;;;;;;;;;;14.20;99.90;;;;;;5113997;28;20359;-34
2022/11/15 12:32:36;;;;;;;;;;;14.30;99.90;;;;;;5114052;28;19904;-34
2022/11/15 12:35:03;;;;;;;;;;;14.40;99.90;;;;;;5100590;28;20007;-38
2022/11/15 12:37:37;;;;;;;;;;;14.40;99.90;;;;;;5093974;28;20288;-35
2022/11/15 12:40:09;;;;;;;;;;;14.30;99.90;;;;;;5094445;28;20384;-33
2022/11/15 12:42:39;;;;;;;;;;;14.40;99.90;;;;;;5093893;28;19994;-39
2022/11/15 12:45:23;;;;;;;;;;;14.50;99.90;;;;;;5094553;28;20358;-35
2022/11/15 12:47:48;;;;;;;;;;;14.40;99.90;;;;;;5093420;28;20002;-36
2022/11/15 12:50:14;;;;;;;;;;;14.40;99.90;;;;;;5093515;28;19943;-36
2022/11/15 12:53:00;;;;;;;;;;;14.40;99.90;;;;;;5092926;28;19914;-34
2022/11/15 12:55:30;;;;;;;;;;;14.40;99.90;;;;;;5093454;28;20381;-35
2022/11/15 12:58:15;;;;;;;;;;;14.30;99.90;;;;;;5093426;28;19904;-39
2022/11/15 13:00:41;;;;;;;;;;;14.40;99.90;;;;;;5093257;28;20451;-35
2022/11/15 13:03:16;;;;;;;;;;;14.30;99.90;;;;;;5093308;28;19972;-33
2022/11/15 13:05:42;;;;;;;;;;;14.40;99.90;;;;;;5093282;28;19904;-36
2022/11/15 13:08:07;;;;;;;;;;;14.40;99.90;;;;;;5093697;28;20374;-36
2022/11/15 13:10:33;;;;;;;;;;;14.40;99.90;;;;;;5113657;28;19903;-35
2022/11/15 13:13:03;;;;;;;;;;;14.50;99.90;;;;;;5113604;28;19908;-36
2022/11/15 13:15:39;;;;;;;;;;;14.50;99.90;;;;;;5098476;28;20382;-34
2022/11/15 13:18:28;;;;;;;;;;;14.30;99.90;;;;;;5093208;28;19908;-36
2022/11/15 13:20:53;;;;;;;;;;;14.20;99.90;;;;;;5086219;28;19915;-32
2022/11/15 13:23:21;;;;;;;;;;;14.10;99.90;;;;;;5096687;28;20352;-36
2022/11/15 13:25:55;;;;;;;;;;;14.10;99.90;;;;;;5091541;28;19908;-36
2022/11/15 13:28:30;;;;;;;;;;;14.10;99.90;;;;;;5091837;28;20278;-43
2022/11/15 13:30:57;;;;;;;;;;;14.10;99.90;;;;;;5093712;28;20372;-33
2022/11/15 13:33:25;;;;;;;;;;;14.00;99.90;;;;;;5103504;28;19904;-33
2022/11/15 13:35:52;;;;;;;;;;;13.90;99.90;;;;;;5093523;28;19915;-33
2022/11/15 13:38:20;;;;;;;;;;;13.90;99.90;;;;;;5101735;28;20386;-36
2022/11/15 13:40:46;;;;;;;;;;;13.90;99.90;;;;;;5096224;28;19934;-33
2022/11/15 13:43:28;;;;;;;;;;;13.80;99.90;;;;;;5096899;28;19904;-35
2022/11/15 13:46:23;;;;;;;;;;;13.70;99.90;;;;;;5096010;28;19943;-36
2022/11/15 13:49:05;;;;;;;;;;;13.70;99.90;;;;;;5092204;28;19951;-33
2022/11/15 13:51:36;;;;;;;;;;;13.70;99.90;;;;;;5117160;28;20268;-34
2022/11/15 13:54:08;;;;;;;;;;;13.60;99.90;;;;;;5117168;28;19908;-35
2022/11/15 13:56:34;;;;;;;;;;;13.60;99.90;;;;;;5099501;28;20375;-37
2022/11/15 13:59:00;;;;;;;;;;;13.60;99.90;;;;;;5112455;28;20014;-37
2022/11/15 14:01:28;;;;;;;;;;;13.60;99.90;;;;;;5117258;28;20390;-35
2022/11/15 14:03:58;;;;;;;;;;;13.60;99.90;;;;;;5111347;28;20387;-35
2022/11/15 14:06:25;;;;;;;;;;;13.50;99.90;;;;;;5109781;28;20377;-33
2022/11/15 14:09:17;;;;;;;;;;;13.50;99.90;;;;;;5117077;28;19908;-34
2022/11/15 14:11:49;;;;;;;;;;;13.40;99.90;;;;;;5084543;28;19903;-34
2022/11/15 14:14:15;;;;;;;;;;;13.40;99.90;;;;;;5114902;28;19958;-37
2022/11/15 14:16:45;;;;;;;;;;;13.30;99.90;;;;;;5107408;28;19908;-32
2022/11/15 14:19:12;;;;;;;;;;;13.30;99.90;;;;;;5102565;28;20372;-36
2022/11/15 14:21:58;;;;;;;;;;;13.30;99.90;;;;;;5096644;28;19966;-37
2022/11/15 14:24:29;;;;;;;;;;;13.30;99.90;;;;;;5096628;28;20422;-34
2022/11/15 14:26:55;;;;;;;;;;;13.20;99.90;;;;;;5096453;28;19912;-36
2022/11/15 14:29:24;;;;;;;;;;;13.20;99.90;;;;;;5100976;28;20371;-38
2022/11/15 14:31:49;;;;;;;;;;;13.20;99.90;;;;;;5116524;28;20265;-34
2022/11/15 14:34:15;;;;;;;;;;;13.30;99.90;;;;;;5116357;28;19911;-36
2022/11/15 14:36:40;;;;;;;;;;;13.20;99.90;;;;;;5104944;28;19915;-51
2022/11/15 14:39:06;;;;;;;;;;;13.20;99.90;;;;;;5097379;28;20036;-36
2022/11/15 14:41:37;;;;;;;;;;;13.20;99.90;;;;;;5102576;28;19903;-35